createdAt,value
2022-12-03T00:00:22.176Z,102535.72
2022-12-03T00:02:48.842Z,102533.84
2022-12-03T00:05:15.442Z,102529.38
2022-12-03T00:07:42.003Z,102525.97
2022-12-03T00:10:08.865Z,102527.84
2022-12-03T00:12:35.267Z,102530.47
2022-12-03T00:15:01.725Z,102521.81
2022-12-03T00:17:28.174Z,102523.34
2022-12-03T00:19:54.563Z,102525.97
2022-12-03T00:22:20.991Z,102520.72
2022-12-03T00:24:47.403Z,102522.25
2022-12-03T00:27:13.831Z,102524.13
2022-12-03T00:29:40.326Z,102525.97
2022-12-03T00:32:06.975Z,102529.38
2022-12-03T00:34:33.728Z,102516.25
2022-12-03T00:37:00.206Z,102519.19
2022-12-03T00:39:26.715Z,102513.94
2022-12-03T00:41:53.167Z,102508.69
2022-12-03T00:44:19.661Z,102498.19
2022-12-03T00:46:46.205Z,102497.44
2022-12-03T00:49:12.752Z,102499.31
2022-12-03T00:51:39.215Z,102497.44
2022-12-03T00:54:06.729Z,102500.41
2022-12-03T00:56:33.983Z,102496.69
2022-12-03T00:59:00.409Z,102494.38
2022-12-03T01:01:26.901Z,102500.72
2022-12-03T01:03:53.373Z,102486.84
2022-12-03T01:06:20.313Z,102492.09
2022-12-03T01:08:46.786Z,102490.22
2022-12-03T01:11:31.606Z,102488.38
2022-12-03T01:13:58.051Z,102482.34
2022-12-03T01:16:24.550Z,102479.72
2022-12-03T01:18:52.759Z,102476.00
2022-12-03T01:21:19.607Z,102477.09
2022-12-03T01:23:46.847Z,102479.72
2022-12-03T01:26:13.444Z,102480.50
2022-12-03T01:28:41.964Z,102472.97
2022-12-03T01:31:27.666Z,102474.47
2022-12-03T01:33:54.261Z,102476.00
2022-12-03T01:36:21.674Z,102472.63
2022-12-03T01:38:49.422Z,102480.16
2022-12-03T01:41:20.891Z,102477.53
2022-12-03T01:43:47.942Z,102477.53
2022-12-03T01:46:18.676Z,102474.16
2022-12-03T01:48:46.433Z,102473.38
2022-12-03T01:51:14.676Z,102474.91
2022-12-03T01:53:41.966Z,102476.44
2022-12-03T01:56:12.270Z,102474.59
2022-12-03T01:58:39.501Z,102473.81
2022-12-03T02:01:18.069Z,102469.34
2022-12-03T02:03:46.113Z,102477.97
2022-12-03T02:06:21.116Z,102472.38
2022-12-03T02:08:49.082Z,102465.59
2022-12-03T02:11:24.815Z,102470.09
2022-12-03T02:13:55.385Z,102467.47
2022-12-03T02:16:23.729Z,102467.91
2022-12-03T02:18:50.376Z,102474.34
2022-12-03T02:21:22.627Z,102469.09
2022-12-03T02:24:15.007Z,102471.72
2022-12-03T02:26:41.500Z,102466.47
2022-12-03T02:29:08.151Z,102469.53
2022-12-03T02:31:34.664Z,102465.38
2022-12-03T02:34:06.359Z,102467.66
2022-12-03T02:36:33.177Z,102464.28
2022-12-03T02:39:00.536Z,102473.34
2022-12-03T02:41:45.606Z,102466.22
2022-12-03T02:44:12.400Z,102460.97
2022-12-03T02:46:39.134Z,102460.22
2022-12-03T02:49:06.456Z,102454.97
2022-12-03T02:51:34.722Z,102460.66
2022-12-03T02:54:02.861Z,102452.00
2022-12-03T02:56:31.227Z,102454.31
2022-12-03T02:59:01.688Z,102462.19
2022-12-03T03:01:28.361Z,102452.84
2022-12-03T03:03:55.559Z,102455.47
2022-12-03T03:06:22.514Z,102451.75
2022-12-03T03:08:49.243Z,102454.38
2022-12-03T03:11:15.786Z,102444.63
2022-12-03T03:13:42.537Z,102436.00
2022-12-03T03:16:09.873Z,102438.28
2022-12-03T03:18:36.939Z,102440.91
2022-12-03T03:21:04.146Z,102436.75
2022-12-03T03:23:30.602Z,102438.28
2022-12-03T03:26:01.347Z,102439.81
2022-12-03T03:28:29.867Z,102436.41
2022-12-03T03:30:58.569Z,102436.09
2022-12-03T03:33:25.142Z,102434.97
2022-12-03T03:35:51.646Z,102431.59
2022-12-03T03:38:19.886Z,102425.25
2022-12-03T03:40:48.108Z,102430.91
2022-12-03T03:43:15.352Z,102428.28
2022-12-03T03:45:42.910Z,102429.06
2022-12-03T03:48:10.239Z,102427.53
2022-12-03T03:50:37.109Z,102421.53
2022-12-03T03:53:04.800Z,102424.56
2022-12-03T03:55:32.216Z,102421.94
2022-12-03T03:57:58.953Z,102418.97
2022-12-03T04:00:25.604Z,102423.47
2022-12-03T04:02:52.856Z,102418.97
2022-12-03T04:05:21.816Z,102412.97
2022-12-03T04:07:48.534Z,102418.97
2022-12-03T04:10:36.188Z,102414.16
2022-12-03T04:13:02.914Z,102412.28
2022-12-03T04:15:29.390Z,102409.66
2022-12-03T04:18:15.012Z,102409.66
2022-12-03T04:20:41.677Z,102410.44
2022-12-03T04:23:09.059Z,102408.22
2022-12-03T04:25:54.117Z,102405.28
2022-12-03T04:28:39.691Z,102408.22
2022-12-03T04:31:25.358Z,102401.88
2022-12-03T04:34:10.961Z,102402.97
2022-12-03T04:36:37.405Z,102399.25
2022-12-03T04:39:04.521Z,102401.88
2022-12-03T04:41:31.028Z,102404.50
2022-12-03T04:44:16.072Z,102400.34
2022-12-03T04:46:42.458Z,102399.25
2022-12-03T04:49:08.915Z,102396.28
2022-12-03T04:51:35.565Z,102391.81
2022-12-03T04:54:02.850Z,102389.50
2022-12-03T04:56:29.374Z,102400.78
2022-12-03T04:58:55.847Z,102400.03
2022-12-03T05:01:22.621Z,102401.88
2022-12-03T05:03:49.240Z,102393.66
2022-12-03T05:06:15.700Z,102392.91
2022-12-03T05:08:42.196Z,102391.03
2022-12-03T05:11:08.702Z,102398.59
2022-12-03T05:13:35.328Z,102398.59
2022-12-03T05:16:01.803Z,102398.59
2022-12-03T05:18:28.288Z,102395.97
2022-12-03T05:20:54.904Z,102389.59
2022-12-03T05:23:21.814Z,102389.59
2022-12-03T05:25:48.463Z,102395.53
2022-12-03T05:28:15.046Z,102389.94
2022-12-03T05:30:41.574Z,102388.41
2022-12-03T05:33:08.171Z,102385.69
2022-12-03T05:35:34.743Z,102385.28
2022-12-03T05:38:01.286Z,102388.66
2022-12-03T05:40:28.664Z,102391.63
2022-12-03T05:42:56.589Z,102384.44
2022-12-03T05:45:32.296Z,102384.84
2022-12-03T05:48:00.527Z,102392.72
2022-12-03T05:50:30.440Z,102378.06
2022-12-03T05:52:57.851Z,102381.47
2022-12-03T05:55:25.064Z,102368.66
2022-12-03T05:57:51.831Z,102378.84
2022-12-03T06:00:27.479Z,102366.13
2022-12-03T06:02:54.739Z,102367.56
2022-12-03T06:05:22.406Z,102363.41
2022-12-03T06:07:50.611Z,102368.66
2022-12-03T06:10:20.599Z,102361.91
2022-12-03T06:12:47.160Z,102357.75
2022-12-03T06:15:14.131Z,102367.16
2022-12-03T06:17:41.499Z,102350.22
2022-12-03T06:20:10.267Z,102349.44
2022-12-03T06:22:36.688Z,102357.31
2022-12-03T06:25:07.162Z,102339.72
2022-12-03T06:27:34.134Z,102354.03
2022-12-03T06:30:00.581Z,102354.03
2022-12-03T06:32:27.034Z,102346.47
2022-12-03T06:34:53.667Z,102349.44
2022-12-03T06:37:20.531Z,102351.72
2022-12-03T06:39:46.972Z,102352.50
2022-12-03T06:42:13.567Z,102350.97
2022-12-03T06:44:39.961Z,102352.84
2022-12-03T06:47:06.492Z,102355.78
2022-12-03T06:49:33.177Z,102347.91
2022-12-03T06:51:59.608Z,102354.69
2022-12-03T06:54:26.161Z,102346.41
2022-12-03T06:56:52.592Z,102353.09
2022-12-03T06:59:19.052Z,102345.97
2022-12-03T07:01:45.607Z,102351.59
2022-12-03T07:04:12.167Z,102345.97
2022-12-03T07:06:38.645Z,102353.09
2022-12-03T07:09:05.142Z,102356.47
2022-12-03T07:11:31.549Z,102353.84
2022-12-03T07:14:04.759Z,102359.09
2022-12-03T07:16:32.411Z,102353.84
2022-12-03T07:18:58.910Z,102350.81
2022-12-03T07:21:25.361Z,102361.66
2022-12-03T07:23:51.880Z,102364.63
2022-12-03T07:26:18.310Z,102363.53
2022-12-03T07:28:44.803Z,102363.09
2022-12-03T07:31:11.366Z,102360.81
2022-12-03T07:33:37.966Z,102366.06
2022-12-03T07:36:04.516Z,102379.19
2022-12-03T07:38:30.933Z,102370.88
2022-12-03T07:40:57.330Z,102374.28
2022-12-03T07:43:23.834Z,102373.06
2022-12-03T07:45:50.319Z,102369.69
2022-12-03T07:48:16.731Z,102369.34
2022-12-03T07:50:43.253Z,102367.81
2022-12-03T07:53:09.755Z,102370.88
2022-12-03T07:55:36.179Z,102367.50
2022-12-03T07:58:03.080Z,102374.59
2022-12-03T08:00:29.664Z,102370.13
2022-12-03T08:02:56.119Z,102367.81
2022-12-03T08:05:22.531Z,102360.28
2022-12-03T08:07:49.026Z,102360.19
2022-12-03T08:10:15.627Z,102360.19
2022-12-03T08:12:42.094Z,102365.13
2022-12-03T08:15:19.859Z,102359.88
2022-12-03T08:17:51.527Z,102366.31
2022-12-03T08:20:21.226Z,102355.81
2022-12-03T08:22:53.731Z,102355.03
2022-12-03T08:25:20.183Z,102357.34
2022-12-03T08:27:46.807Z,102347.94
2022-12-03T08:30:15.775Z,102349.47
2022-12-03T08:32:42.879Z,102354.38
2022-12-03T08:35:14.939Z,102353.28
2022-12-03T08:37:41.526Z,102350.22
2022-12-03T08:40:25.622Z,102358.44
2022-12-03T08:42:52.044Z,102352.41
2022-12-03T08:45:32.008Z,102352.00
2022-12-03T08:48:00.556Z,102346.75
2022-12-03T08:50:28.493Z,102353.09
2022-12-03T08:52:59.245Z,102349.28
2022-12-03T08:55:33.603Z,102345.88
2022-12-03T08:58:00.195Z,102340.63
2022-12-03T09:00:26.695Z,102349.28
2022-12-03T09:02:58.925Z,102348.09
2022-12-03T09:05:29.649Z,102350.38
2022-12-03T09:07:56.272Z,102347.00
2022-12-03T09:10:22.762Z,102347.31
2022-12-03T09:12:49.166Z,102338.00
2022-12-03T09:15:15.744Z,102340.63
2022-12-03T09:17:42.223Z,102336.16
2022-12-03T09:20:09.602Z,102334.97
2022-12-03T09:22:36.190Z,102337.59
2022-12-03T09:25:02.630Z,102335.63
2022-12-03T09:27:29.156Z,102329.97
2022-12-03T09:29:55.615Z,102328.88
2022-12-03T09:32:25.505Z,102332.69
2022-12-03T09:34:52.365Z,102333.44
2022-12-03T09:37:19.118Z,102334.53
2022-12-03T09:39:45.629Z,102336.06
2022-12-03T09:42:12.944Z,102333.34
2022-12-03T09:44:39.548Z,102343.31
2022-12-03T09:47:06.957Z,102333.06
2022-12-03T09:49:37.073Z,102337.91
2022-12-03T09:52:05.527Z,102336.47
2022-12-03T09:54:32.858Z,102334.25
2022-12-03T09:57:02.649Z,102344.75
2022-12-03T09:59:34.716Z,102332.75
2022-12-03T10:02:02.110Z,102332.75
2022-12-03T10:04:29.413Z,102334.25
2022-12-03T10:06:57.478Z,102334.69
2022-12-03T10:09:26.147Z,102343.66
2022-12-03T10:11:52.923Z,102348.56
2022-12-03T10:14:19.965Z,102350.78
2022-12-03T10:16:46.616Z,102344.44
2022-12-03T10:19:21.106Z,102340.28
2022-12-03T10:21:47.735Z,102344.34
2022-12-03T10:24:28.817Z,102347.63
2022-12-03T10:26:57.850Z,102336.69
2022-12-03T10:29:34.025Z,102335.97
2022-12-03T10:32:06.815Z,102341.22
2022-12-03T10:34:38.830Z,102335.22
2022-12-03T10:37:12.270Z,102326.22
2022-12-03T10:40:14.288Z,102330.34
2022-12-03T10:42:41.352Z,102329.88
2022-12-03T10:45:23.406Z,102307.69
2022-12-03T10:48:05.723Z,102313.69
2022-12-03T10:50:33.496Z,102310.31
2022-12-03T10:52:59.987Z,102303.88
2022-12-03T10:55:28.766Z,102306.50
2022-12-03T10:57:55.227Z,102303.88
2022-12-03T11:00:22.719Z,102298.22
2022-12-03T11:02:56.354Z,102300.91
2022-12-03T11:05:29.323Z,102291.53
2022-12-03T11:07:56.569Z,102299.06
2022-12-03T11:10:23.771Z,102289.66
2022-12-03T11:13:27.674Z,102293.28
2022-12-03T11:15:54.592Z,102292.69
2022-12-03T11:18:35.952Z,102280.34
2022-12-03T11:21:13.415Z,102278.91
2022-12-03T11:23:45.992Z,102282.28
2022-12-03T11:26:18.849Z,102278.13
2022-12-03T11:28:46.072Z,102270.69
2022-12-03T11:31:35.061Z,102276.28
2022-12-03T11:34:33.501Z,102270.94
2022-12-03T11:37:12.236Z,102264.59
2022-12-03T11:39:44.647Z,102270.59
2022-12-03T11:42:26.376Z,102261.97
2022-12-03T11:45:11.113Z,102257.25
2022-12-03T11:47:46.770Z,102251.47
2022-12-03T11:50:28.265Z,102247.44
2022-12-03T11:53:00.254Z,102248.63
2022-12-03T11:55:31.124Z,102248.28
2022-12-03T11:58:04.642Z,102240.06
2022-12-03T12:00:31.503Z,102242.69
2022-12-03T12:02:58.997Z,102257.00
2022-12-03T12:05:29.671Z,102234.41
2022-12-03T12:07:56.834Z,102235.06
2022-12-03T12:10:43.326Z,102229.06
2022-12-03T12:13:33.752Z,102238.38
2022-12-03T12:16:06.886Z,102231.69
2022-12-03T12:18:37.596Z,102227.22
2022-12-03T12:21:47.499Z,102224.84
2022-12-03T12:24:47.854Z,102220.34
2022-12-03T12:27:24.611Z,102217.63
2022-12-03T12:29:57.010Z,102217.31
2022-12-03T12:32:29.703Z,102210.63
2022-12-03T12:35:27.272Z,102197.59
2022-12-03T12:38:14.721Z,102194.97
2022-12-03T12:40:45.016Z,102197.59
2022-12-03T12:43:25.295Z,102203.59
2022-12-03T12:45:57.049Z,102193.53
2022-12-03T12:48:28.815Z,102189.06
2022-12-03T12:51:08.883Z,102190.50
2022-12-03T12:53:36.795Z,102192.25
2022-12-03T12:56:23.659Z,102184.31
2022-12-03T12:58:50.207Z,102191.84
2022-12-03T13:01:24.353Z,102188.78
2022-12-03T13:03:52.489Z,102182.03
2022-12-03T13:06:25.447Z,102187.59
2022-12-03T13:08:53.318Z,102185.75
2022-12-03T13:11:42.181Z,102181.34
2022-12-03T13:14:26.659Z,102182.78
2022-12-03T13:16:56.617Z,102183.78
2022-12-03T13:19:28.390Z,102182.28
2022-12-03T13:21:56.836Z,102179.66
2022-12-03T13:24:37.437Z,102192.09
2022-12-03T13:27:16.015Z,102180.75
2022-12-03T13:29:42.818Z,102170.25
2022-12-03T13:32:17.988Z,102171.44
2022-12-03T13:34:45.358Z,102171.34
2022-12-03T13:37:26.986Z,102178.13
2022-12-03T13:39:57.411Z,102161.72
2022-12-03T13:42:42.185Z,102161.72
2022-12-03T13:45:14.850Z,102159.00
2022-12-03T13:47:41.902Z,102152.34
2022-12-03T13:50:41.926Z,102158.00
2022-12-03T13:53:11.399Z,102157.16
2022-12-03T13:55:42.727Z,102155.53
2022-12-03T13:58:09.256Z,102154.72
2022-12-03T14:00:35.769Z,102154.53
2022-12-03T14:03:05.370Z,102155.31
2022-12-03T14:05:31.816Z,102150.72
2022-12-03T14:08:01.572Z,102151.06
2022-12-03T14:10:29.253Z,102149.13
2022-12-03T14:12:56.594Z,102148.03
2022-12-03T14:15:23.494Z,102150.31
2022-12-03T14:17:49.958Z,102155.13
2022-12-03T14:20:16.489Z,102138.03
2022-12-03T14:22:43.214Z,102146.97
2022-12-03T14:25:10.545Z,102139.56
2022-12-03T14:27:37.655Z,102129.75
2022-12-03T14:30:05.168Z,102130.06
2022-12-03T14:32:31.769Z,102127.53
2022-12-03T14:34:58.223Z,102126.34
2022-12-03T14:37:24.648Z,102129.66
2022-12-03T14:39:51.101Z,102138.38
2022-12-03T14:42:18.286Z,102139.88
2022-12-03T14:44:47.459Z,102130.94
2022-12-03T14:47:15.925Z,102126.03
2022-12-03T14:49:42.746Z,102132.03
2022-12-03T14:52:12.281Z,102140.22
2022-12-03T14:54:41.672Z,102129.75
2022-12-03T14:57:08.438Z,102130.06
2022-12-03T14:59:34.870Z,102127.88
2022-12-03T15:02:01.359Z,102130.16
2022-12-03T15:04:27.948Z,102129.75
2022-12-03T15:06:54.435Z,102130.06
2022-12-03T15:09:21.078Z,102129.66
2022-12-03T15:11:47.523Z,102130.75
2022-12-03T15:14:14.491Z,102122.88
2022-12-03T15:16:41.069Z,102132.28
2022-12-03T15:19:07.585Z,102130.84
2022-12-03T15:21:34.874Z,102133.47
2022-12-03T15:24:02.259Z,102128.88
2022-12-03T15:26:29.521Z,102123.66
2022-12-03T15:28:56.046Z,102126.25
2022-12-03T15:31:22.511Z,102125.06
2022-12-03T15:33:49.155Z,102133.28
2022-12-03T15:36:15.669Z,102128.78
2022-12-03T15:38:42.081Z,102131.41
2022-12-03T15:41:21.601Z,102131.00
2022-12-03T15:43:49.074Z,102125.75
2022-12-03T15:46:16.068Z,102133.19
2022-12-03T15:48:42.612Z,102133.19
2022-12-03T15:51:09.188Z,102131.25
2022-12-03T15:53:35.974Z,102127.78
2022-12-03T15:56:02.532Z,102130.75
2022-12-03T15:58:29.018Z,102143.41
2022-12-03T16:00:55.622Z,102136.31
2022-12-03T16:03:22.221Z,102135.88
2022-12-03T16:05:48.772Z,102140.03
2022-12-03T16:08:15.560Z,102135.53
2022-12-03T16:10:42.159Z,102133.25
2022-12-03T16:13:08.677Z,102130.97
2022-12-03T16:15:35.737Z,102129.13
2022-12-03T16:18:02.338Z,102138.50
2022-12-03T16:20:28.854Z,102139.59
2022-12-03T16:22:55.373Z,102133.94
2022-12-03T16:25:21.882Z,102126.84
2022-12-03T16:27:48.595Z,102132.06
2022-12-03T16:30:15.326Z,102130.22
2022-12-03T16:32:42.227Z,102120.50
2022-12-03T16:35:08.831Z,102128.78
2022-12-03T16:37:35.246Z,102130.97
2022-12-03T16:40:01.750Z,102124.63
2022-12-03T16:42:28.379Z,102123.53
2022-12-03T16:45:14.883Z,102116.34
2022-12-03T16:47:41.356Z,102115.25
2022-12-03T16:50:10.682Z,102107.75
2022-12-03T16:52:40.720Z,102106.22
2022-12-03T16:55:07.732Z,102105.44
2022-12-03T16:57:34.223Z,102112.13
2022-12-03T17:00:01.158Z,102115.50
2022-12-03T17:02:27.914Z,102109.50
2022-12-03T17:04:54.726Z,102108.66
2022-12-03T17:07:21.243Z,102100.78
2022-12-03T17:09:47.770Z,102097.06
2022-12-03T17:12:14.939Z,102105.25
2022-12-03T17:14:41.369Z,102102.63
2022-12-03T17:17:07.779Z,102104.84
2022-12-03T17:19:34.281Z,102106.34
2022-12-03T17:22:00.718Z,102108.88
2022-12-03T17:24:27.144Z,102115.31
2022-12-03T17:26:53.589Z,102113.78
2022-12-03T17:29:20.062Z,102113.34
2022-12-03T17:31:46.579Z,102105.50
2022-12-03T17:34:13.176Z,102103.66
2022-12-03T17:36:39.767Z,102112.69
2022-12-03T17:39:06.236Z,102115.31
2022-12-03T17:41:32.672Z,102110.84
2022-12-03T17:43:59.202Z,102113.88
2022-12-03T17:46:25.689Z,102112.44
2022-12-03T17:48:52.095Z,102109.50
2022-12-03T17:51:20.839Z,102108.75
2022-12-03T17:53:47.399Z,102109.41
2022-12-03T17:56:13.908Z,102105.59
2022-12-03T17:58:40.490Z,102108.13
2022-12-03T18:01:08.538Z,102105.84
2022-12-03T18:03:35.066Z,102105.41
2022-12-03T18:06:01.980Z,102107.25
2022-12-03T18:08:28.859Z,102105.75
2022-12-03T18:10:55.330Z,102105.75
2022-12-03T18:13:21.881Z,102105.31
2022-12-03T18:15:48.405Z,102096.69
2022-12-03T18:18:14.956Z,102094.50
2022-12-03T18:20:41.416Z,102088.94
2022-12-03T18:23:07.887Z,102088.50
2022-12-03T18:25:34.496Z,102089.25
2022-12-03T18:28:00.988Z,102090.03
2022-12-03T18:30:27.448Z,102081.75
2022-12-03T18:32:54.138Z,102082.84
2022-12-03T18:35:20.758Z,102080.22
2022-12-03T18:37:49.923Z,102087.41
2022-12-03T18:40:22.473Z,102083.94
2022-12-03T18:42:48.987Z,102077.16
2022-12-03T18:45:16.293Z,102074.56
2022-12-03T18:47:43.321Z,102072.69
2022-12-03T18:50:11.547Z,102080.97
2022-12-03T18:52:38.072Z,102086.97
2022-12-03T18:55:05.926Z,102079.03
2022-12-03T18:57:32.360Z,102072.63
2022-12-03T18:59:58.887Z,102077.53
2022-12-03T19:02:54.197Z,102081.66
2022-12-03T19:05:12.722Z,102073.72
2022-12-03T19:07:39.259Z,102081.16
2022-12-03T19:10:06.759Z,102074.72
2022-12-03T19:12:33.454Z,102073.28
2022-12-03T19:14:59.940Z,102080.06
2022-12-03T19:17:27.289Z,102077.09
2022-12-03T19:19:54.625Z,102078.19
2022-12-03T19:22:21.624Z,102075.59
2022-12-03T19:24:48.099Z,102076.25
2022-12-03T19:27:15.115Z,102069.91
2022-12-03T19:29:41.759Z,102069.16
2022-12-03T19:32:08.849Z,102074.41
2022-12-03T19:34:35.431Z,102071.00
2022-12-03T19:37:01.934Z,102066.09
2022-12-03T19:39:28.345Z,102065.34
2022-12-03T19:41:54.779Z,102062.72
2022-12-03T19:44:21.190Z,102066.44
2022-12-03T19:46:49.452Z,102069.41
2022-12-03T19:49:18.461Z,102066.69
2022-12-03T19:51:44.959Z,102056.53
2022-12-03T19:54:11.900Z,102058.06
2022-12-03T19:56:38.934Z,102061.00
2022-12-03T19:59:06.456Z,102053.50
2022-12-03T20:01:35.134Z,102053.41
2022-12-03T20:04:03.307Z,102055.25
2022-12-03T20:06:32.792Z,102049.69
2022-12-03T20:09:05.810Z,102054.59
2022-12-03T20:11:33.504Z,102058.31
2022-12-03T20:14:06.091Z,102057.22
2022-12-03T20:16:33.778Z,102058.63
2022-12-03T20:19:04.884Z,102068.00
2022-12-03T20:21:34.253Z,102070.63
2022-12-03T20:24:00.926Z,102060.06
2022-12-03T20:26:28.413Z,102059.63
2022-12-03T20:28:55.643Z,102061.91
2022-12-03T20:31:24.787Z,102055.16
2022-12-03T20:33:54.279Z,102054.41
2022-12-03T20:36:22.616Z,102052.53
2022-12-03T20:38:53.912Z,102048.41
2022-12-03T20:41:20.842Z,102043.94
2022-12-03T20:43:47.953Z,102040.88
2022-12-03T20:46:23.655Z,102050.59
2022-12-03T20:48:50.191Z,102042.72
2022-12-03T20:51:18.975Z,102040.53
2022-12-03T20:53:45.786Z,102032.69
2022-12-03T20:56:20.247Z,102031.94
2022-12-03T20:58:48.770Z,102024.09
2022-12-03T21:01:24.390Z,102023.00
2022-12-03T21:03:53.423Z,102025.28
2022-12-03T21:06:22.034Z,102029.06
2022-12-03T21:08:48.979Z,102031.59
2022-12-03T21:11:21.564Z,102025.59
2022-12-03T21:13:48.047Z,102025.28
2022-12-03T21:16:18.163Z,102020.03
2022-12-03T21:18:45.225Z,102028.66
2022-12-03T21:21:14.155Z,102026.78
2022-12-03T21:23:41.184Z,102025.59
2022-12-03T21:26:21.642Z,102023.31
2022-12-03T21:28:50.673Z,102028.22
2022-12-03T21:31:23.341Z,102022.22
2022-12-03T21:33:49.807Z,102025.94
2022-12-03T21:36:16.879Z,102018.41
2022-12-03T21:38:44.708Z,102025.94
2022-12-03T21:41:12.244Z,102023.31
2022-12-03T21:43:38.880Z,102018.09
2022-12-03T21:47:11.971Z,102018.84
2022-12-03T21:48:54.375Z,102016.91
2022-12-03T21:51:20.815Z,102018.31
2022-12-03T21:53:47.710Z,102019.84
2022-12-03T21:56:19.719Z,102015.03
2022-12-03T21:58:46.668Z,102021.03
2022-12-03T22:01:22.472Z,102025.19
2022-12-03T22:03:49.693Z,102018.75
2022-12-03T22:06:17.217Z,102018.00
2022-12-03T22:08:44.066Z,102013.84
2022-12-03T22:11:13.370Z,102009.72
2022-12-03T22:13:40.645Z,102008.19
2022-12-03T22:16:10.072Z,102016.38
2022-12-03T22:18:36.993Z,102011.22
2022-12-03T22:21:09.383Z,102006.75
2022-12-03T22:23:36.102Z,102007.84
2022-12-03T22:26:05.878Z,102007.44
2022-12-03T22:28:32.987Z,102006.34
2022-12-03T22:30:59.663Z,102007.44
2022-12-03T22:33:26.316Z,102008.94
2022-12-03T22:36:01.165Z,102015.59
2022-12-03T22:38:29.667Z,102020.09
2022-12-03T22:40:56.480Z,102011.91
2022-12-03T22:43:23.410Z,102006.00
2022-12-03T22:45:54.637Z,102012.75
2022-12-03T22:48:22.315Z,101998.16
2022-12-03T22:50:49.888Z,101996.38
2022-12-03T22:53:17.202Z,102001.63
2022-12-03T22:55:43.880Z,102004.56
2022-12-03T22:58:11.138Z,102001.53
2022-12-03T23:00:40.077Z,101998.91
2022-12-03T23:03:07.606Z,101997.81
2022-12-03T23:05:36.846Z,101997.81
2022-12-03T23:08:08.859Z,101992.59
2022-12-03T23:10:40.548Z,101984.06
2022-12-03T23:13:07.864Z,101986.25
2022-12-03T23:15:34.456Z,101984.72
2022-12-03T23:18:01.440Z,101981.34
2022-12-03T23:20:28.527Z,101978.75
2022-12-03T23:22:55.348Z,101979.50
2022-12-03T23:25:22.379Z,101986.34
2022-12-03T23:30:16.508Z,101989.31
2022-12-03T23:32:44.320Z,101994.09
2022-12-03T23:35:12.213Z,101996.72
2022-12-03T23:37:38.884Z,101995.97
2022-12-03T23:40:06.164Z,101991.50
2022-12-03T23:42:32.618Z,101991.50
2022-12-03T23:44:59.083Z,101986.25
2022-12-03T23:47:25.486Z,101989.97
2022-12-03T23:49:52.140Z,101987.34
2022-12-03T23:52:18.764Z,101993.00
2022-12-03T23:54:46.054Z,101995.63
2022-12-03T23:57:12.739Z,101991.50
2022-12-03T23:59:39.646Z,101992.69
